Time;durP1;ratioP1;P1;durP2;ratioP2;P2;SDS_P1;SDS_P2;PMS_P1;PMS_P2;Temp;Humidity;BMP_temperature;BMP_pressure;BME280_temperature;BME280_humidity;BME280_pressure;Samples;Min_cycle;Max_cycle;Signal;HPM_P1;HPM_P2
2021/03/12 00:02:26;;;;;;;6.97;1.13;;;;;;;6.15;100.00;96352.50;5045789;28;20068;-82
2021/03/12 00:04:53;;;;;;;4.13;0.90;;;;;;;6.02;100.00;96348.88;5046503;28;20041;-81
2021/03/12 00:07:19;;;;;;;3.08;0.77;;;;;;;6.05;100.00;96364.38;5045575;28;20071;-82
2021/03/12 00:09:45;;;;;;;2.53;0.60;;;;;;;5.98;100.00;96353.31;5044409;28;20076;-78
2021/03/12 00:12:12;;;;;;;2.47;0.70;;;;;;;6.02;100.00;96373.06;5025924;28;20049;-81
2021/03/12 00:14:41;;;;;;;5.30;0.95;;;;;;;5.94;100.00;96359.63;5026866;28;20045;-79
2021/03/12 00:17:07;;;;;;;5.03;0.80;;;;;;;5.99;100.00;96386.31;5044613;28;20060;-79
2021/03/12 00:19:34;;;;;;;4.38;1.27;;;;;;;5.74;100.00;96371.75;5026321;28;20053;-80
2021/03/12 00:22:00;;;;;;;7.55;1.10;;;;;;;5.86;100.00;96382.69;5043792;28;20068;-80
2021/03/12 00:24:26;;;;;;;3.67;0.95;;;;;;;5.78;100.00;96370.00;5026367;28;20093;-81
2021/03/12 00:26:58;;;;;;;6.07;1.48;;;;;;;5.91;100.00;96390.59;5044695;28;20056;-77
2021/03/12 00:29:28;;;;;;;4.57;0.85;;;;;;;5.97;100.00;96399.28;5027406;28;20045;-79
2021/03/12 00:31:54;;;;;;;2.47;0.80;;;;;;;5.91;100.00;96385.22;5045080;28;20460;-80
2021/03/12 00:34:21;;;;;;;4.68;0.80;;;;;;;6.01;100.00;96401.00;5027318;28;20231;-80
2021/03/12 00:36:47;;;;;;;5.90;0.90;;;;;;;6.02;100.00;96404.50;5029884;28;20100;-80
2021/03/12 00:39:13;;;;;;;4.57;0.88;;;;;;;5.78;100.00;96385.34;5044806;28;20065;-79
2021/03/12 00:41:45;;;;;;;3.80;0.88;;;;;;;5.90;100.00;96396.28;5030441;28;20560;-81
2021/03/12 00:44:12;;;;;;;3.33;0.80;;;;;;;5.99;100.00;96405.91;5050683;28;20101;-81
2021/03/12 00:46:38;;;;;;;5.43;1.23;;;;;;;6.01;100.00;96406.38;5049228;28;20056;-81
2021/03/12 00:49:04;;;;;;;8.68;0.93;;;;;;;6.02;100.00;96402.59;5048850;28;20129;-81
2021/03/12 00:51:30;;;;;;;4.72;0.82;;;;;;;5.94;100.00;96398.00;5046816;28;20049;-80
2021/03/12 00:53:56;;;;;;;6.10;1.00;;;;;;;5.97;100.00;96388.53;5043687;28;20045;-81
2021/03/12 00:56:22;;;;;;;6.40;1.02;;;;;;;6.06;100.00;96400.09;5027871;28;20042;-82
2021/03/12 00:58:48;;;;;;;5.43;1.15;;;;;;;6.02;100.00;96405.28;5045451;28;20308;-80
2021/03/12 01:01:15;;;;;;;4.03;0.80;;;;;;;5.97;100.00;96380.47;5026539;28;20525;-80
2021/03/12 01:03:41;;;;;;;6.07;1.33;;;;;;;5.95;100.00;96402.28;5027642;28;20042;-81
2021/03/12 01:06:07;;;;;;;7.88;1.10;;;;;;;5.94;100.00;96392.63;5026280;28;20053;-79
2021/03/12 01:08:33;;;;;;;5.93;1.05;;;;;;;5.97;100.00;96402.75;5044412;28;20061;-80
2021/03/12 01:10:59;;;;;;;7.47;1.15;;;;;;;5.95;100.00;96414.94;5044798;28;20429;-80
2021/03/12 01:13:26;;;;;;;3.30;0.70;;;;;;;5.71;100.00;96390.38;5043639;28;20047;-81
2021/03/12 01:15:52;;;;;;;5.80;0.77;;;;;;;5.78;100.00;96402.22;5026313;28;20076;-80
2021/03/12 01:18:19;;;;;;;4.35;1.15;;;;;;;5.73;100.00;96405.06;5026633;28;20053;-80
2021/03/12 01:20:45;;;;;;;2.88;0.95;;;;;;;5.68;100.00;96421.31;5025202;28;20093;-80
2021/03/12 01:23:11;;;;;;;6.18;1.15;;;;;;;5.60;100.00;96414.84;5039573;28;20477;-80
2021/03/12 01:25:40;;;;;;;5.70;1.02;;;;;;;5.50;100.00;96425.06;5020335;28;20105;-81
2021/03/12 01:28:07;;;;;;;4.93;1.05;;;;;;;5.52;100.00;96412.16;5021178;28;20057;-82
2021/03/12 01:30:39;;;;;;;3.15;1.02;;;;;;;5.43;100.00;96404.06;5039055;28;20034;-79
2021/03/12 01:33:07;;;;;;;5.63;1.40;;;;;;;5.54;100.00;96426.84;5004465;28;20140;-79
2021/03/12 01:35:35;;;;;;;5.57;1.52;;;;;;;5.51;100.00;96422.09;5038249;28;20099;-79
2021/03/12 01:38:01;;;;;;;8.70;1.30;;;;;;;5.49;100.00;96402.03;5020211;28;20120;-79
2021/03/12 01:40:29;;;;;;;6.25;1.25;;;;;;;5.49;100.00;96402.03;5022258;28;20105;-81
2021/03/12 01:42:57;;;;;;;5.60;1.05;;;;;;;5.59;100.00;96407.09;5019462;28;20069;-79
2021/03/12 01:45:29;;;;;;;5.55;1.05;;;;;;;5.62;100.00;96407.28;5037503;28;20100;-79
2021/03/12 01:48:00;;;;;;;3.00;1.00;;;;;;;5.63;100.00;96411.53;5035995;28;20053;-79
2021/03/12 01:50:27;;;;;;;5.78;1.00;;;;;;;5.55;100.00;96400.75;5018612;28;20163;-78
2021/03/12 01:52:53;;;;;;;5.70;1.13;;;;;;;5.52;100.00;96386.06;5019334;28;20287;-78
2021/03/12 01:55:33;;;;;;;4.85;1.08;;;;;;;5.56;100.00;96402.34;5040367;28;20046;-81
2021/03/12 01:58:00;;;;;;;5.80;1.13;;;;;;;5.47;100.00;96391.59;5021558;28;20248;-80
2021/03/12 02:00:28;;;;;;;3.85;1.10;;;;;;;5.56;100.00;96395.09;5006760;28;20049;-81
2021/03/12 02:02:56;;;;;;;5.32;1.15;;;;;;;5.61;100.00;96403.00;5044014;28;20045;-79
2021/03/12 02:05:23;;;;;;;6.53;1.50;;;;;;;5.64;100.00;96402.38;5028329;28;20044;-82
2021/03/12 02:07:49;;;;;;;4.75;0.95;;;;;;;5.63;100.00;96400.00;5024218;28;20233;-81
2021/03/12 02:10:19;;;;;;;7.38;1.00;;;;;;;5.77;100.00;96406.03;5023280;28;20053;-82
2021/03/12 02:13:11;;;;;;;3.78;1.20;;;;;;;5.75;100.00;96402.88;5040986;28;20045;-82
2021/03/12 02:15:56;;;;;;;5.03;0.82;;;;;;;5.87;100.00;96421.06;5040129;28;20057;-80
2021/03/12 02:18:37;;;;;;;5.63;1.20;;;;;;;5.93;100.00;96391.09;5040800;28;20065;-80
2021/03/12 02:21:31;;;;;;;3.38;1.00;;;;;;;5.96;100.00;96416.53;5022183;28;20050;-80
2021/03/12 02:24:04;;;;;;;8.57;1.02;;;;;;;5.93;100.00;96404.50;5042534;28;20045;-80
2021/03/12 02:26:38;;;;;;;10.32;1.30;;;;;;;5.95;100.00;96417.59;5024782;28;20101;-79
2021/03/12 02:29:07;;;;;;;6.20;0.95;;;;;;;5.90;100.00;96413.19;5041966;28;20049;-80
2021/03/12 02:31:35;;;;;;;7.55;0.95;;;;;;;5.97;100.00;96412.72;5023397;28;20038;-80
2021/03/12 02:34:06;;;;;;;6.82;1.00;;;;;;;5.98;100.00;96403.56;5041504;28;20095;-80
2021/03/12 02:36:36;;;;;;;5.00;1.00;;;;;;;5.96;100.00;96401.16;5042102;28;20059;-80
2021/03/12 02:39:05;;;;;;;8.40;1.10;;;;;;;5.98;100.00;96423.16;5025378;28;20053;-78
2021/03/12 02:41:32;;;;;;;3.60;0.95;;;;;;;5.99;100.00;96446.22;5042989;28;20153;-81
2021/03/12 02:44:01;;;;;;;3.60;0.90;;;;;;;5.92;100.00;96410.97;5024834;28;20049;-81
2021/03/12 02:46:28;;;;;;;6.45;0.80;;;;;;;5.81;100.00;96439.19;5042976;28;20112;-80
2021/03/12 02:48:56;;;;;;;5.53;1.13;;;;;;;5.66;100.00;96451.19;5023632;28;20045;-79
2021/03/12 02:51:23;;;;;;;7.28;0.90;;;;;;;5.46;100.00;96434.84;5040062;28;20494;-79
2021/03/12 02:53:50;;;;;;;3.97;0.63;;;;;;;5.30;100.00;96439.06;5005710;28;20049;-80
2021/03/12 02:56:17;;;;;;;5.03;0.95;;;;;;;5.21;100.00;96447.09;5019530;28;20108;-82
2021/03/12 02:58:45;;;;;;;5.75;1.05;;;;;;;5.07;100.00;96454.41;5036314;28;20484;-79
2021/03/12 03:01:13;;;;;;;9.23;1.13;;;;;;;4.96;100.00;96451.22;5018876;28;20097;-80
2021/03/12 03:03:40;;;;;;;5.57;1.23;;;;;;;4.91;100.00;96462.06;5017338;28;20501;-80
2021/03/12 03:06:08;;;;;;;5.00;1.25;;;;;;;4.94;100.00;96455.28;5035544;28;20049;-81
2021/03/12 03:08:37;;;;;;;5.18;1.27;;;;;;;4.97;100.00;96462.72;5022569;28;20065;-79
2021/03/12 03:11:06;;;;;;;10.27;1.38;;;;;;;4.92;100.00;96458.28;5044046;28;20111;-78
2021/03/12 03:13:53;;;;;;;4.65;1.17;;;;;;;4.89;100.00;96475.00;5033950;28;20037;-81
2021/03/12 03:16:24;;;;;;;3.30;1.15;;;;;;;4.86;100.00;96480.16;5040631;28;20076;-82
2021/03/12 03:18:52;;;;;;;4.38;1.35;;;;;;;4.98;100.00;96491.91;5040705;28;20041;-83
2021/03/12 03:21:22;;;;;;;6.00;1.27;;;;;;;5.06;100.00;96503.00;5023327;28;20496;-80
2021/03/12 03:23:48;;;;;;;6.45;1.40;;;;;;;5.06;100.00;96486.91;5023481;28;20041;-81
2021/03/12 03:26:14;;;;;;;6.45;1.30;;;;;;;5.11;100.00;96502.88;5037325;28;20053;-80
2021/03/12 03:28:40;;;;;;;5.03;1.40;;;;;;;5.16;100.00;96505.44;5018777;28;20446;-80
2021/03/12 03:31:06;;;;;;;5.72;1.25;;;;;;;5.22;100.00;96504.19;5036392;28;20041;-80
2021/03/12 03:33:33;;;;;;;4.65;0.95;;;;;;;5.24;100.00;96518.88;5018383;28;20383;-80
2021/03/12 03:36:01;;;;;;;6.10;1.05;;;;;;;5.23;100.00;96511.94;5037657;28;20045;-81
2021/03/12 03:38:28;;;;;;;5.88;1.50;;;;;;;5.25;100.00;96508.94;5020354;28;20137;-81
2021/03/12 03:40:55;;;;;;;6.15;1.20;;;;;;;5.35;100.00;96519.41;5020524;28;20053;-81
2021/03/12 03:43:25;;;;;;;3.75;1.10;;;;;;;5.28;100.00;96513.69;5038939;28;20041;-80
2021/03/12 03:45:55;;;;;;;4.40;1.08;;;;;;;5.29;100.00;96507.25;5005123;28;20053;-81
2021/03/12 03:48:23;;;;;;;5.70;1.20;;;;;;;5.31;100.00;96515.75;5004671;28;20045;-81
2021/03/12 03:50:50;;;;;;;4.78;0.88;;;;;;;5.28;100.00;96511.00;5022077;28;20059;-79
2021/03/12 03:53:17;;;;;;;5.60;0.95;;;;;;;5.13;100.00;96511.41;5009458;28;20120;-80
2021/03/12 03:55:43;;;;;;;3.60;0.77;;;;;;;5.13;100.00;96512.22;5029350;28;20041;-79
2021/03/12 03:58:10;;;;;;;5.28;1.02;;;;;;;5.18;100.00;96527.38;5023389;28;20059;-80
2021/03/12 04:00:37;;;;;;;5.82;0.93;;;;;;;5.01;100.00;96502.03;5007822;28;20072;-82
2021/03/12 04:03:04;;;;;;;6.72;1.20;;;;;;;5.17;100.00;96528.47;5023861;28;20227;-80
2021/03/12 04:05:31;;;;;;;6.35;1.00;;;;;;;5.22;100.00;96560.53;5022527;28;20083;-80
2021/03/12 04:07:59;;;;;;;5.32;1.00;;;;;;;5.06;100.00;96576.19;5036992;28;20052;-81
2021/03/12 04:10:27;;;;;;;3.50;0.90;;;;;;;4.79;100.00;96592.41;5034385;28;20040;-81
2021/03/12 04:12:54;;;;;;;4.28;0.98;;;;;;;4.49;100.00;96590.41;5034057;28;20042;-80
2021/03/12 04:15:21;;;;;;;3.15;1.00;;;;;;;4.26;100.00;96590.34;5033582;28;20041;-80
2021/03/12 04:17:48;;;;;;;2.25;0.73;;;;;;;4.10;100.00;96599.78;5033657;28;20044;-80
2021/03/12 04:20:15;;;;;;;5.35;0.88;;;;;;;4.06;100.00;96606.81;5015966;28;20132;-81
2021/03/12 04:22:42;;;;;;;5.22;1.00;;;;;;;4.06;100.00;96620.22;5033273;28;20045;-80
2021/03/12 04:25:09;;;;;;;2.00;0.75;;;;;;;4.07;100.00;96616.44;5017401;28;20038;-82
2021/03/12 04:27:38;;;;;;;2.03;0.80;;;;;;;4.10;100.00;96599.00;5034975;28;20132;-81
2021/03/12 04:30:06;;;;;;;3.92;0.85;;;;;;;4.11;100.00;96621.97;5035697;28;20485;-79
2021/03/12 04:32:34;;;;;;;3.40;1.15;;;;;;;4.05;100.00;96632.00;5016726;28;20045;-79
2021/03/12 04:35:01;;;;;;;5.40;0.90;;;;;;;4.08;100.00;96650.16;5017398;28;20046;-82
2021/03/12 04:37:28;;;;;;;3.75;0.85;;;;;;;4.08;100.00;96647.47;5000706;28;20297;-81
2021/03/12 04:39:54;;;;;;;5.70;0.88;;;;;;;4.06;100.00;96665.72;5035929;28;20070;-78
2021/03/12 04:42:22;;;;;;;3.60;1.13;;;;;;;4.01;100.00;96646.28;5017524;28;20045;-82
2021/03/12 04:45:05;;;;;;;2.97;1.00;;;;;;;4.14;100.00;96664.25;5035266;28;20044;-82
2021/03/12 04:47:32;;;;;;;2.85;0.88;;;;;;;4.17;100.00;96659.09;5015092;28;20128;-82
2021/03/12 04:50:00;;;;;;;2.33;0.80;;;;;;;4.16;100.00;96660.19;5032915;28;20045;-81
2021/03/12 04:52:29;;;;;;;1.55;0.90;;;;;;;4.18;100.00;96666.03;4999764;28;20041;-83
2021/03/12 04:54:59;;;;;;;7.50;1.10;;;;;;;4.27;100.00;96679.53;5017111;28;20378;-80
2021/03/12 04:57:26;;;;;;;4.93;1.10;;;;;;;4.26;100.00;96673.38;5035072;28;20441;-84
2021/03/12 04:59:56;;;;;;;2.03;0.82;;;;;;;4.13;100.00;96646.59;5019050;28;20041;-80
2021/03/12 05:02:24;;;;;;;3.95;0.90;;;;;;;4.25;100.00;96679.03;5001834;28;20041;-80
2021/03/12 05:04:53;;;;;;;3.42;0.85;;;;;;;4.26;100.00;96678.72;5038860;28;20060;-80
2021/03/12 05:07:21;;;;;;;4.53;0.80;;;;;;;4.08;100.00;96652.03;5040953;28;20037;-81
2021/03/12 05:09:47;;;;;;;6.13;1.00;;;;;;;4.12;100.00;96666.44;5024498;28;20053;-81
2021/03/12 05:12:15;;;;;;;2.78;0.90;;;;;;;4.24;100.00;96682.78;5023881;28;20128;-80
2021/03/12 05:14:44;;;;;;;4.75;0.82;;;;;;;4.18;100.00;96673.28;5026625;28;20041;-78
2021/03/12 05:17:10;;;;;;;1.20;0.63;;;;;;;4.12;100.00;96664.56;5031695;28;20032;-78
2021/03/12 05:19:37;;;;;;;5.43;0.90;;;;;;;4.08;100.00;96670.78;5023647;28;20136;-83
2021/03/12 05:22:03;;;;;;;2.88;0.80;;;;;;;4.21;100.00;96686.06;5021168;28;20636;-81
2021/03/12 05:24:29;;;;;;;4.32;0.90;;;;;;;4.41;100.00;96688.38;5017858;28;20041;-79
2021/03/12 05:26:56;;;;;;;3.05;1.10;;;;;;;4.47;100.00;96692.50;5040874;28;20072;-79
2021/03/12 05:32:00;;;;;;;3.63;0.90;;;;;;;4.67;100.00;96694.00;5031048;28;20049;-80
2021/03/12 05:34:28;;;;;;;3.40;0.70;;;;;;;4.58;100.00;96690.44;5044659;28;20059;-80
2021/03/12 05:36:56;;;;;;;3.92;0.70;;;;;;;4.55;100.00;96693.69;5053887;28;20045;-79
2021/03/12 05:39:22;;;;;;;3.00;0.88;;;;;;;4.53;100.00;96699.38;5037589;28;20053;-80
2021/03/12 05:41:49;;;;;;;1.95;0.50;;;;;;;4.54;100.00;96709.00;5021370;28;20060;-78
2021/03/12 05:44:17;;;;;;;3.63;0.70;;;;;;;4.54;100.00;96708.22;5066564;22;20053;-75
2021/03/12 05:46:43;;;;;;;4.65;0.88;;;;;;;4.54;100.00;96713.56;5042783;28;20055;-74
2021/03/12 05:49:10;;;;;;;2.17;0.63;;;;;;;4.52;100.00;96721.88;5056869;28;20271;-76
2021/03/12 05:51:36;;;;;;;4.55;0.90;;;;;;;4.52;100.00;96711.16;5054655;28;20045;-75
2021/03/12 05:54:04;;;;;;;3.55;0.80;;;;;;;4.45;100.00;96718.81;5053699;28;20381;-75
2021/03/12 05:56:34;;;;;;;2.75;0.60;;;;;;;4.43;100.00;96733.59;5054039;28;20041;-75
2021/03/12 05:59:03;;;;;;;4.25;0.50;;;;;;;4.41;100.00;96736.59;5050882;28;20048;-76
2021/03/12 06:01:35;;;;;;;6.75;1.13;;;;;;;4.44;100.00;96741.34;5051696;28;20052;-77
2021/03/12 06:04:01;;;;;;;3.95;0.80;;;;;;;4.44;100.00;96740.56;5052092;28;20220;-74
2021/03/12 06:06:28;;;;;;;4.63;0.93;;;;;;;4.39;100.00;96741.44;5052035;28;20051;-75
2021/03/12 06:08:54;;;;;;;3.15;0.70;;;;;;;4.39;100.00;96744.13;5052196;28;20523;-75
2021/03/12 06:11:20;;;;;;;3.05;0.80;;;;;;;4.45;100.00;96766.25;5050548;28;20067;-76
2021/03/12 06:13:54;;;;;;;2.78;0.80;;;;;;;4.47;100.00;96770.22;5051248;28;20045;-76
2021/03/12 06:16:30;;;;;;;3.83;0.70;;;;;;;4.60;100.00;96769.44;5049801;28;20142;-77
2021/03/12 06:19:17;;;;;;;3.35;0.88;;;;;;;4.66;100.00;96775.50;5051680;28;20072;-74
2021/03/12 06:21:45;;;;;;;1.58;0.70;;;;;;;4.68;100.00;96781.34;5050884;28;20445;-76
2021/03/12 06:24:30;;;;;;;5.63;0.90;;;;;;;4.67;100.00;96793.94;5050007;28;20037;-76
2021/03/12 06:26:57;;;;;;;2.95;1.00;;;;;;;4.65;100.00;96793.47;5050865;28;20095;-77
2021/03/12 06:29:37;;;;;;;5.88;0.90;;;;;;;4.60;100.00;96798.91;5049372;28;20447;-77
2021/03/12 06:32:05;;;;;;;3.58;0.75;;;;;;;4.60;100.00;96812.31;5051562;28;20128;-77
2021/03/12 06:34:32;;;;;;;4.80;0.70;;;;;;;4.54;100.00;96802.81;5051327;28;20037;-74
2021/03/12 06:37:00;;;;;;;2.65;0.70;;;;;;;4.56;100.00;96813.22;5051102;28;20410;-75
2021/03/12 06:39:33;;;;;;;2.85;0.80;;;;;;;4.53;100.00;96813.81;5050879;28;20440;-76
2021/03/12 06:42:07;;;;;;;4.65;0.80;;;;;;;4.54;100.00;96824.25;5051839;28;20045;-74
2021/03/12 06:44:36;;;;;;;4.40;0.70;;;;;;;4.60;100.00;96831.09;5034979;28;20044;-77
2021/03/12 06:47:03;;;;;;;4.07;0.98;;;;;;;4.60;100.00;96835.63;5030890;28;20056;-75
2021/03/12 06:49:30;;;;;;;5.68;1.00;;;;;;;4.62;100.00;96834.25;5031494;28;20116;-75
2021/03/12 06:52:05;;;;;;;5.28;0.80;;;;;;;4.69;100.00;96840.03;5029284;28;20056;-76
2021/03/12 06:54:32;;;;;;;4.43;0.70;;;;;;;4.72;100.00;96847.47;5039213;28;20041;-76
2021/03/12 06:56:59;;;;;;;4.13;0.60;;;;;;;4.72;100.00;96849.38;5044546;28;20048;-76
2021/03/12 06:59:32;;;;;;;3.35;0.60;;;;;;;4.68;100.00;96841.13;5043005;28;20128;-76
2021/03/12 07:02:06;;;;;;;4.90;0.80;;;;;;;4.68;100.00;96845.69;5045276;28;20419;-76
2021/03/12 07:04:33;;;;;;;2.10;0.60;;;;;;;4.68;100.00;96845.69;5051950;28;20815;-75
2021/03/12 07:07:00;;;;;;;2.33;0.77;;;;;;;4.66;100.00;96851.34;5042451;28;20059;-76
2021/03/12 07:09:28;;;;;;;2.80;0.93;;;;;;;4.71;100.00;96855.81;5051290;28;20306;-76
2021/03/12 07:12:03;;;;;;;4.28;0.77;;;;;;;4.74;100.00;96872.13;5047162;28;20049;-76
2021/03/12 07:14:30;;;;;;;1.90;0.80;;;;;;;4.76;100.00;96871.81;5050392;28;20041;-76
2021/03/12 07:16:59;;;;;;;4.07;0.82;;;;;;;4.77;100.00;96882.25;5049078;28;20128;-76
2021/03/12 07:19:26;;;;;;;5.30;0.93;;;;;;;4.82;100.00;96886.72;5051062;28;20045;-76
2021/03/12 07:21:57;;;;;;;4.65;1.00;;;;;;;4.84;100.00;96881.84;5050134;28;20063;-75
2021/03/12 07:24:24;;;;;;;2.95;0.95;;;;;;;4.83;100.00;96893.66;5050760;28;20049;-75
2021/03/12 07:26:55;;;;;;;4.20;1.20;;;;;;;4.83;100.00;96896.34;5050981;28;20048;-75
2021/03/12 07:29:24;;;;;;;5.22;0.90;;;;;;;4.86;100.00;96914.53;5044955;28;20049;-76
2021/03/12 07:31:53;;;;;;;5.10;1.00;;;;;;;4.91;100.00;96911.75;5049866;28;20047;-75
2021/03/12 07:34:24;;;;;;;2.63;0.98;;;;;;;4.94;100.00;96911.16;5032039;28;20148;-76
2021/03/12 07:36:54;;;;;;;4.10;1.10;;;;;;;4.97;100.00;96915.94;5049576;28;20045;-75
2021/03/12 07:39:26;;;;;;;4.78;1.15;;;;;;;4.95;100.00;96929.66;5050493;28;20104;-75
2021/03/12 07:41:55;;;;;;;2.55;0.80;;;;;;;4.99;100.00;96927.97;5050698;28;20048;-75
2021/03/12 07:44:44;;;;;;;4.30;1.10;;;;;;;5.06;100.00;96934.84;5048739;28;20036;-76
2021/03/12 07:47:24;;;;;;;4.55;1.05;;;;;;;5.14;100.00;96948.34;5050000;28;20049;-75
2021/03/12 07:49:51;;;;;;;5.55;1.05;;;;;;;5.21;100.00;96942.59;5050156;28;20056;-74
2021/03/12 07:52:38;;;;;;;7.28;0.98;;;;;;;5.23;100.00;96951.13;5049460;28;20041;-76
2021/03/12 07:55:04;;;;;;;2.78;0.88;;;;;;;5.24;100.00;96948.13;5048529;28;20411;-76
2021/03/12 07:57:39;;;;;;;4.45;1.00;;;;;;;5.24;100.00;96944.69;5050098;28;20516;-76
2021/03/12 08:00:07;;;;;;;5.28;1.02;;;;;;;5.30;100.00;96951.53;5050293;28;20488;-74
2021/03/12 08:03:01;;;;;;;4.50;1.00;;;;;;;5.40;100.00;96962.06;5048648;28;20156;-76
2021/03/12 08:05:40;;;;;;;8.90;1.20;;;;;;;5.41;100.00;96956.41;5049581;28;20041;-75
2021/03/12 08:08:39;;;;;;;6.65;1.20;;;;;;;5.45;100.00;96959.28;5048808;28;20119;-76
2021/03/12 08:11:18;;;;;;;5.70;1.42;;;;;;;5.45;100.00;96967.34;5058263;28;20192;-75
2021/03/12 08:13:45;;;;;;;7.95;1.17;;;;;;;5.46;100.00;96969.75;5055631;28;20045;-76
2021/03/12 08:16:11;;;;;;;6.68;1.10;;;;;;;5.45;100.00;96965.44;5051776;28;20106;-76
2021/03/12 08:18:39;;;;;;;5.47;1.25;;;;;;;5.43;100.00;96962.28;5050811;28;20146;-77
2021/03/12 08:21:30;;;;;;;4.28;1.38;;;;;;;5.45;100.00;96970.81;5050160;28;20049;-76
2021/03/12 08:23:58;;;;;;;4.90;1.00;;;;;;;5.42;100.00;96982.16;5049323;28;20099;-76
2021/03/12 08:26:46;;;;;;;3.75;1.00;;;;;;;5.40;100.00;96973.59;5052029;28;20078;-77
2021/03/12 08:29:30;;;;;;;8.15;1.23;;;;;;;5.46;100.00;96987.72;5050643;28;20507;-75
2021/03/12 08:31:57;;;;;;;5.60;0.95;;;;;;;5.41;100.00;96977.88;5049456;28;20052;-76
2021/03/12 08:34:38;;;;;;;4.13;0.85;;;;;;;5.47;100.00;96992.00;5048392;28;20033;-77
2021/03/12 08:37:26;;;;;;;8.93;1.13;;;;;;;5.53;100.00;96983.56;5049969;28;20055;-74
2021/03/12 08:40:14;;;;;;;4.70;0.80;;;;;;;5.55;100.00;97002.81;5049003;28;20365;-77
2021/03/12 08:42:58;;;;;;;4.28;1.20;;;;;;;5.62;100.00;96994.41;5052119;28;20045;-76
2021/03/12 08:45:49;;;;;;;3.83;0.98;;;;;;;5.66;100.00;96998.88;5068827;28;20032;-77
2021/03/12 08:48:22;;;;;;;6.18;1.15;;;;;;;5.66;100.00;97008.81;5069558;28;20051;-77
2021/03/12 08:50:51;;;;;;;9.98;1.10;;;;;;;5.65;100.00;96997.25;5068741;28;20124;-77
2021/03/12 08:53:18;;;;;;;6.80;1.00;;;;;;;5.64;100.00;96992.19;5069523;28;20044;-75
2021/03/12 08:55:46;;;;;;;5.78;1.00;;;;;;;5.72;100.00;97006.81;5069994;28;20135;-75
2021/03/12 08:58:15;;;;;;;6.85;1.10;;;;;;;5.74;100.00;97024.22;5068595;28;20044;-76
2021/03/12 09:00:44;;;;;;;6.40;1.10;;;;;;;5.73;100.00;97017.25;5069465;28;20033;-77
2021/03/12 09:03:14;;;;;;;3.60;0.90;;;;;;;5.70;100.00;97009.81;5068241;28;20040;-76
2021/03/12 09:05:41;;;;;;;5.05;0.98;;;;;;;5.73;100.00;97019.16;5069099;28;20036;-76
2021/03/12 09:08:07;;;;;;;4.97;0.80;;;;;;;5.86;100.00;97021.84;5067665;28;20048;-74
2021/03/12 09:10:34;;;;;;;4.72;0.90;;;;;;;5.86;100.00;97016.47;5069710;28;20043;-79
2021/03/12 09:13:00;;;;;;;4.13;0.95;;;;;;;6.11;100.00;97023.25;5071249;28;20135;-76
2021/03/12 09:15:27;;;;;;;3.95;0.88;;;;;;;6.18;100.00;97026.31;5073519;28;20078;-74
2021/03/12 09:18:06;;;;;;;6.20;0.98;;;;;;;6.17;100.00;97030.88;5075596;28;20040;-75
2021/03/12 09:20:33;;;;;;;4.07;0.90;;;;;;;6.13;100.00;97031.78;5073327;28;20608;-77
2021/03/12 09:22:59;;;;;;;3.60;0.80;;;;;;;6.02;100.00;97027.72;5073259;28;20106;-76
2021/03/12 09:25:30;;;;;;;4.00;0.70;;;;;;;5.83;100.00;97035.06;5072930;28;20044;-76
2021/03/12 09:28:08;;;;;;;4.60;1.00;;;;;;;5.74;100.00;97018.84;5072886;28;20127;-76
2021/03/12 09:30:45;;;;;;;6.95;1.00;;;;;;;5.75;100.00;97025.03;5074362;28;20104;-77
2021/03/12 09:33:31;;;;;;;8.80;1.33;;;;;;;5.68;100.00;97021.94;5073505;28;20080;-74
2021/03/12 09:35:58;;;;;;;;;;;;;;;5.77;100.00;97022.81;5073614;28;20036;-76
2021/03/12 09:38:37;;;;;;;4.72;0.90;;;;;;;5.90;100.00;97032.81;5055144;28;20280;-76
2021/03/12 09:41:15;;;;;;;5.95;1.40;;;;;;;6.15;100.00;97026.91;5071598;28;20048;-76
2021/03/12 09:43:43;;;;;;;9.00;1.15;;;;;;;6.34;100.00;97026.78;5073515;28;20108;-76
2021/03/12 09:46:11;;;;;;;5.85;1.02;;;;;;;6.58;100.00;97027.31;5073364;28;20047;-76
2021/03/12 09:48:39;;;;;;;5.40;1.15;;;;;;;6.67;100.00;97012.03;5072217;28;20400;-76
2021/03/12 09:51:06;;;;;;;3.83;1.00;;;;;;;6.71;100.00;97026.47;5071171;28;20435;-76
2021/03/12 09:53:33;;;;;;;5.53;1.13;;;;;;;6.93;100.00;97037.25;5071009;28;20502;-77
2021/03/12 09:56:00;;;;;;;4.78;1.10;;;;;;;7.03;100.00;97028.91;5072834;28;20531;-75
2021/03/12 09:58:27;;;;;;;5.32;1.00;;;;;;;7.10;100.00;97029.28;5072446;28;20044;-75
2021/03/12 10:01:09;;;;;;;7.82;1.15;;;;;;;7.29;100.00;97039.84;5070516;28;20048;-77
2021/03/12 10:03:35;;;;;;;4.50;0.88;;;;;;;7.50;100.00;97016.69;5071045;28;20127;-76
2021/03/12 10:06:07;;;;;;;7.30;1.25;;;;;;;7.79;100.00;97019.66;5070674;28;20047;-77
2021/03/12 10:08:34;;;;;;;10.25;1.20;;;;;;;7.94;100.00;97034.59;5070609;28;20060;-75
2021/03/12 10:11:00;;;;;;;5.13;0.90;;;;;;;7.74;100.00;97019.81;5070581;28;20066;-76
2021/03/12 10:13:44;;;;;;;4.57;1.13;;;;;;;7.57;100.00;97022.41;5071470;28;20041;-76
2021/03/12 10:16:13;;;;;;;4.45;1.10;;;;;;;7.76;100.00;97022.19;5072224;28;20058;-75
2021/03/12 10:18:39;;;;;;;3.75;1.10;;;;;;;7.80;100.00;97017.75;5072320;28;20075;-75
2021/03/12 10:21:19;;;;;;;9.13;1.10;;;;;;;8.21;100.00;97022.78;5070123;28;20044;-77
2021/03/12 10:23:49;;;;;;;4.72;1.00;;;;;;;8.56;100.00;97035.25;5070521;28;20402;-77
2021/03/12 10:26:15;;;;;;;3.95;0.88;;;;;;;8.54;100.00;97016.66;5070653;28;20045;-75
2021/03/12 10:28:47;;;;;;;7.72;0.98;;;;;;;8.43;100.00;97020.78;5071530;28;20064;-76
2021/03/12 10:31:13;;;;;;;7.10;1.17;;;;;;;8.51;100.00;97016.53;5070418;28;20089;-76
2021/03/12 10:33:48;;;;;;;5.65;1.63;;;;;;;8.47;100.00;97005.56;5070489;28;20139;-75
2021/03/12 10:36:17;;;;;;;8.68;1.55;;;;;;;8.37;100.00;96994.28;5071965;28;20052;-76
2021/03/12 10:38:46;;;;;;;7.70;1.05;;;;;;;8.30;100.00;96992.06;5071949;28;20054;-76
2021/03/12 10:41:20;;;;;;;3.70;0.90;;;;;;;8.61;100.00;96995.41;5072051;28;20076;-76
2021/03/12 10:44:02;;;;;;;3.88;0.95;;;;;;;8.73;100.00;96971.28;5073567;28;20040;-74
2021/03/12 10:46:30;;;;;;;4.13;1.00;;;;;;;8.54;100.00;97000.47;5089074;28;20029;-75
2021/03/12 10:48:57;;;;;;;4.35;0.90;;;;;;;8.73;100.00;97009.06;5090818;28;20067;-74
2021/03/12 10:51:35;;;;;;;4.72;0.70;;;;;;;8.08;100.00;96994.84;5086691;28;20419;-74
2021/03/12 10:54:01;;;;;;;3.25;0.70;;;;;;;8.66;100.00;96962.88;5082647;28;20329;-74
2021/03/12 10:56:27;;;;;;;4.80;0.80;;;;;;;8.50;96.50;97013.03;5082398;28;20159;-74
2021/03/12 10:58:55;;;;;;;5.53;1.20;;;;;;;8.69;99.17;96989.22;5083552;28;20067;-73
2021/03/12 11:01:29;;;;;;;5.38;1.30;;;;;;;9.27;94.14;96991.34;5062681;28;20082;-74
2021/03/12 11:03:58;;;;;;;6.05;1.00;;;;;;;8.75;89.43;96977.16;5059410;28;20037;-74
2021/03/12 11:06:30;;;;;;;4.93;1.00;;;;;;;8.96;95.88;97001.56;5054511;28;20077;-74
2021/03/12 11:09:02;;;;;;;5.82;0.98;;;;;;;9.10;90.87;96988.72;5056192;28;20096;-76
2021/03/12 11:11:29;;;;;;;3.83;0.65;;;;;;;8.64;87.06;96975.09;5056326;28;20064;-75
2021/03/12 11:13:56;;;;;;;4.28;1.00;;;;;;;8.60;100.00;96983.03;5061908;28;20045;-75
2021/03/12 11:16:22;;;;;;;4.95;0.90;;;;;;;8.29;100.00;96987.78;5065104;28;20179;-74
2021/03/12 11:18:49;;;;;;;6.00;0.98;;;;;;;9.97;92.71;96984.56;5057883;28;20122;-75
2021/03/12 11:21:15;;;;;;;5.43;1.17;;;;;;;10.22;85.43;96980.94;5055170;28;20132;-74
2021/03/12 11:23:45;;;;;;;5.70;1.13;;;;;;;9.14;97.06;96978.84;5056234;28;20056;-75
2021/03/12 11:26:12;;;;;;;5.05;1.00;;;;;;;8.31;100.00;96992.88;5051225;28;20111;-77
2021/03/12 11:28:39;;;;;;;3.05;1.00;;;;;;;9.34;100.00;96990.88;5051445;28;20049;-76
2021/03/12 11:31:06;;;;;;;6.63;1.00;;;;;;;9.48;100.00;96969.84;5043884;28;20044;-75
2021/03/12 11:33:32;;;;;;;8.02;1.40;;;;;;;9.41;96.90;96980.38;5049945;28;20101;-76
2021/03/12 11:36:04;;;;;;;2.75;0.88;;;;;;;9.17;100.00;96975.50;5049573;28;20051;-75
2021/03/12 11:38:30;;;;;;;6.88;0.80;;;;;;;9.14;100.00;96976.13;5049469;28;20051;-76
2021/03/12 11:40:57;;;;;;;5.63;1.00;;;;;;;8.67;100.00;96980.66;5050868;28;20049;-75
2021/03/12 11:43:24;;;;;;;5.13;0.90;;;;;;;8.52;100.00;96974.94;5061658;23;20045;-81
2021/03/12 11:45:52;;;;;;;2.42;0.90;;;;;;;8.63;100.00;96976.22;5041171;28;20041;-80
2021/03/12 11:48:22;;;;;;;4.10;1.05;;;;;;;9.05;86.19;96974.59;5065981;28;20048;-80
2021/03/12 11:50:50;;;;;;;4.47;0.93;;;;;;;8.84;84.82;96974.44;5032789;28;20445;-80